Time;durP1;ratioP1;P1;durP2;ratioP2;P2;SDS_P1;SDS_P2;PMS_P1;PMS_P2;Temp;Humidity;BMP_temperature;BMP_pressure;BME280_temperature;BME280_humidity;BME280_pressure;Samples;Min_cycle;Max_cycle;Signal;HPM_P1;HPM_P2
2022/04/10 00:00:01;;;;;;;3.37;1.70;;;3.40;99.90;;;4.16;100.00;-19868.53;5032902;28;20253;-53
2022/04/10 00:02:30;;;;;;;1.90;1.80;;;3.40;99.90;;;3.90;100.00;-19859.66;5032627;28;20713;-56
2022/04/10 00:04:58;;;;;;;2.30;1.50;;;3.30;99.90;;;3.77;100.00;-19855.22;5032861;28;20229;-58
2022/04/10 00:07:26;;;;;;;2.03;1.50;;;3.20;99.90;;;4.20;100.00;-19869.75;5032611;28;20342;-55
2022/04/10 00:09:54;;;;;;;1.93;1.37;;;3.30;99.90;;;3.86;100.00;-19858.13;5032545;28;20314;-56
2022/04/10 00:12:22;;;;;;;2.40;1.90;;;3.20;99.90;;;3.75;100.00;-19854.53;5032250;28;20737;-58
2022/04/10 00:14:50;;;;;;;3.63;1.53;;;3.20;99.90;;;3.70;100.00;-19852.81;5032974;28;20313;-56
2022/04/10 00:17:18;;;;;;;2.17;1.57;;;3.10;99.90;;;3.64;100.00;-19850.94;5032110;28;20240;-56
2022/04/10 00:19:48;;;;;;;3.23;1.33;;;3.10;99.90;;;3.64;100.00;-19850.78;5032110;28;20229;-56
2022/04/10 00:22:16;;;;;;;2.73;1.57;;;3.00;99.90;;;3.53;100.00;-19847.00;5032071;28;20254;-56
2022/04/10 00:24:44;;;;;;;2.63;1.33;;;3.00;99.90;;;3.55;100.00;-19847.69;5032388;28;20213;-56
2022/04/10 00:27:13;;;;;;;2.27;1.57;;;2.90;99.90;;;3.46;100.00;-19844.63;5031984;28;20229;-58
2022/04/10 00:29:41;;;;;;;1.57;1.47;;;2.90;99.90;;;3.58;100.00;-19848.72;5032248;28;20237;-56
2022/04/10 00:32:09;;;;;;;4.67;1.63;;;2.90;99.90;;;3.61;100.00;-19849.75;5032051;28;20769;-54
2022/04/10 00:34:37;;;;;;;2.83;1.40;;;2.90;99.90;;;3.48;100.00;-19845.47;5032220;28;20222;-57
2022/04/10 00:37:07;;;;;;;2.07;1.60;;;2.80;99.90;;;3.54;100.00;-19847.34;5031951;28;20229;-56
2022/04/10 00:39:35;;;;;;;4.60;1.73;;;2.80;99.90;;;3.52;100.00;-19846.66;5032074;28;20204;-55
2022/04/10 00:42:03;;;;;;;4.30;1.57;;;2.80;99.90;;;3.65;100.00;-19851.28;5031539;28;20228;-55
2022/04/10 00:44:33;;;;;;;3.27;1.40;;;2.80;99.90;;;3.54;100.00;-19847.34;5031911;28;20233;-56
2022/04/10 00:47:02;;;;;;;2.43;1.23;;;2.80;99.90;;;3.31;100.00;-19839.66;5031691;28;20249;-57
2022/04/10 00:49:30;;;;;;;2.67;1.73;;;2.80;99.90;;;3.38;100.00;-19842.06;5031949;28;20332;-55
2022/04/10 00:52:00;;;;;;;4.10;1.50;;;2.70;99.90;;;3.40;100.00;-19842.72;5031369;28;20204;-56
2022/04/10 00:54:30;;;;;;;1.70;1.60;;;2.80;99.90;;;3.43;100.00;-19843.59;5032135;28;20233;-58
2022/04/10 00:57:00;;;;;;;1.70;1.60;;;2.70;99.90;;;3.43;100.00;-19843.59;5031374;28;20652;-55
2022/04/10 00:59:29;;;;;;;2.20;1.60;;;2.70;99.90;;;3.46;100.00;-19844.63;5031649;28;20227;-55
2022/04/10 01:01:58;;;;;;;3.37;1.60;;;2.70;99.90;;;3.50;100.00;-19846.00;5031503;28;20229;-58
2022/04/10 01:04:42;;;;;;;2.43;1.50;;;2.70;99.90;;;3.52;100.00;-19846.84;5031587;28;20238;-56
2022/04/10 01:07:12;;;;;;;3.30;1.80;;;2.80;99.90;;;3.40;100.00;-19842.72;5031246;28;20527;-55
2022/04/10 01:09:42;;;;;;;2.87;1.40;;;2.80;99.90;;;3.34;100.00;-19840.69;5031652;28;20241;-57
2022/04/10 01:12:11;;;;;;;3.00;1.50;;;2.70;99.90;;;3.57;100.00;-19848.38;5030826;28;20717;-56
2022/04/10 01:14:41;;;;;;;3.60;1.53;;;2.70;99.90;;;3.67;100.00;-19851.78;5031244;28;20230;-55
2022/04/10 01:17:11;;;;;;;6.43;1.80;;;2.80;99.90;;;3.34;100.00;-19840.69;5031227;28;20321;-58
2022/04/10 01:19:41;;;;;;;3.23;1.97;;;2.70;99.90;;;3.35;100.00;-19841.03;5031320;28;20665;-56
2022/04/10 01:22:13;;;;;;;3.60;1.83;;;2.70;99.90;;;3.55;100.00;-19847.69;5030983;28;20728;-57
2022/04/10 01:24:43;;;;;;;2.83;1.60;;;2.70;99.90;;;3.52;100.00;-19846.84;5031739;28;20192;-56
2022/04/10 01:27:11;;;;;;;3.43;1.60;;;2.80;99.90;;;3.39;100.00;-19842.22;5030804;28;20230;-57
2022/04/10 01:29:39;;;;;;;4.30;2.10;;;2.70;99.90;;;3.53;100.00;-19847.19;5030587;28;20258;-56
2022/04/10 01:32:09;;;;;;;3.70;1.60;;;2.70;99.90;;;3.52;100.00;-19846.66;5030900;28;20309;-55
2022/04/10 01:34:40;;;;;;;4.27;2.00;;;2.70;99.90;;;3.43;100.00;-19843.59;5030857;28;20600;-58
2022/04/10 01:37:10;;;;;;;2.13;1.93;;;2.80;99.90;;;3.35;100.00;-19841.03;5030742;28;20241;-56
2022/04/10 01:39:38;;;;;;;3.53;1.60;;;;;;;3.65;100.00;-19851.28;5031010;28;20707;-57
2022/04/10 01:42:08;;;;;;;3.33;2.00;;;2.70;99.90;;;3.55;100.00;-19847.88;5030493;28;20229;-56
2022/04/10 01:44:43;;;;;;;5.43;1.70;;;2.80;99.90;;;3.70;100.00;-19852.81;5030641;28;20291;-57
2022/04/10 01:47:11;;;;;;;6.77;3.13;;;2.90;99.90;;;3.66;100.00;-19851.63;5030624;28;20667;-56
2022/04/10 01:49:39;;;;;;;6.40;2.60;;;2.90;99.90;;;3.73;100.00;-19854.03;5030450;28;20232;-56
2022/04/10 01:52:08;;;;;;;6.50;2.27;;;2.90;99.90;;;3.63;100.00;-19850.59;5030579;28;20285;-58
2022/04/10 01:54:36;;;;;;;4.70;2.10;;;2.90;99.90;;;3.65;100.00;-19851.28;5031050;28;20250;-57
2022/04/10 01:57:08;;;;;;;6.20;2.97;;;2.90;99.90;;;3.86;100.00;-19858.13;5030370;28;20235;-55
2022/04/10 01:59:36;;;;;;;7.37;2.80;;;2.90;99.90;;;3.71;100.00;-19853.34;5030265;28;20229;-58
2022/04/10 02:02:05;;;;;;;4.00;2.83;;;2.90;99.90;;;3.69;100.00;-19852.47;5030643;28;20252;-58
2022/04/10 02:04:34;;;;;;;6.80;3.00;;;2.90;99.90;;;3.80;100.00;-19856.06;5030351;28;20834;-57
2022/04/10 02:07:03;;;;;;;7.03;3.27;;;2.90;99.90;;;3.67;100.00;-19851.97;5030498;28;20215;-56
2022/04/10 02:09:31;;;;;;;5.10;3.30;;;2.90;99.90;;;3.56;100.00;-19848.03;5031061;28;20198;-56
2022/04/10 02:11:59;;;;;;;5.63;3.17;;;2.80;99.90;;;3.52;100.00;-19846.66;5029865;28;20348;-57
2022/04/10 02:14:28;;;;;;;5.33;3.03;;;2.80;99.90;;;3.50;100.00;-19846.16;5030339;28;20234;-57
2022/04/10 02:16:56;;;;;;;8.03;3.30;;;2.80;99.90;;;3.50;100.00;-19846.00;5030585;28;20312;-56
2022/04/10 02:19:24;;;;;;;5.47;3.20;;;2.80;99.90;;;3.44;100.00;-19843.94;5030139;28;20250;-56
2022/04/10 02:21:54;;;;;;;5.50;2.70;;;2.70;99.90;;;3.66;100.00;-19851.44;5030516;28;20292;-54
2022/04/10 02:24:22;;;;;;;4.80;2.80;;;2.70;99.90;;;3.48;100.00;-19845.47;5030874;28;20189;-54
2022/04/10 02:26:50;;;;;;;6.23;3.07;;;2.70;99.90;;;3.38;100.00;-19842.06;5030152;28;20236;-58
2022/04/10 02:29:18;;;;;;;7.13;2.80;;;2.70;99.90;;;3.28;100.00;-19838.63;5030256;28;20255;-56
2022/04/10 02:31:48;;;;;;;4.37;2.63;;;2.70;99.90;;;3.21;100.00;-19836.06;5030226;28;20236;-57
2022/04/10 02:34:16;;;;;;;5.47;2.60;;;2.60;99.90;;;3.29;100.00;-19838.81;5030302;28;20284;-58
2022/04/10 02:36:44;;;;;;;6.07;2.60;;;2.60;99.90;;;3.27;100.00;-19838.13;5030784;28;20208;-56
2022/04/10 02:39:12;;;;;;;4.10;2.30;;;2.60;99.90;;;3.18;100.00;-19835.03;5029711;28;20249;-57
2022/04/10 02:41:40;;;;;;;4.07;2.40;;;2.60;99.90;;;3.19;100.00;-19835.38;5031256;28;20310;-59
2022/04/10 02:44:09;;;;;;;5.03;2.47;;;2.60;99.90;;;3.05;100.00;-19830.59;5033639;28;20784;-57
2022/04/10 02:46:37;;;;;;;5.20;2.37;;;2.50;99.90;;;3.31;100.00;-19839.66;5034248;28;20232;-57
2022/04/10 02:49:06;;;;;;;5.80;2.67;;;2.50;99.90;;;3.13;100.00;-19833.50;5034026;28;20298;-57
2022/04/10 02:51:34;;;;;;;4.47;1.97;;;2.50;99.90;;;3.43;100.00;-19843.75;5034261;28;20728;-56
2022/04/10 02:54:02;;;;;;;6.20;2.90;;;2.50;99.90;;;3.38;100.00;-19842.06;5033832;28;20307;-55
2022/04/10 02:56:30;;;;;;;4.03;2.43;;;2.60;99.90;;;3.34;100.00;-19840.50;5034023;28;20271;-56
2022/04/10 02:58:58;;;;;;;3.90;2.20;;;2.60;99.90;;;3.15;100.00;-19834.19;5033575;28;20264;-55
2022/04/10 03:01:26;;;;;;;8.37;2.37;;;2.60;99.90;;;3.31;100.00;-19839.66;5034282;28;20221;-58
2022/04/10 03:03:54;;;;;;;6.03;2.57;;;2.60;99.90;;;3.16;100.00;-19834.34;5033900;28;20210;-55
2022/04/10 03:06:24;;;;;;;2.63;2.10;;;2.60;99.90;;;3.24;100.00;-19837.09;5034083;28;20215;-55
2022/04/10 03:08:52;;;;;;;4.73;2.53;;;2.60;99.90;;;3.21;100.00;-19836.25;5033539;28;20231;-57
2022/04/10 03:11:20;;;;;;;2.63;2.13;;;2.50;99.90;;;3.29;100.00;-19838.97;5033753;28;20255;-55
2022/04/10 03:13:48;;;;;;;3.33;2.10;;;2.60;99.90;;;3.18;100.00;-19835.03;5033166;28;20252;-56
2022/04/10 03:16:16;;;;;;;4.13;2.50;;;2.50;99.90;;;3.16;100.00;-19834.53;5033650;28;20273;-55
2022/04/10 03:18:44;;;;;;;5.13;3.07;;;2.50;99.90;;;3.44;100.00;-19844.09;5033874;28;20319;-55
2022/04/10 03:21:12;;;;;;;2.83;2.50;;;2.60;99.90;;;3.56;100.00;-19848.22;5033299;28;20222;-57
2022/04/10 03:23:41;;;;;;;5.60;2.50;;;2.70;99.90;;;3.55;100.00;-19847.88;5033372;28;20316;-56
2022/04/10 03:26:09;;;;;;;6.27;2.83;;;2.70;99.90;;;3.65;100.00;-19851.28;5033131;28;20252;-58
2022/04/10 03:28:37;;;;;;;4.10;2.10;;;2.80;99.90;;;3.70;100.00;-19852.81;5033028;28;20231;-56
2022/04/10 03:31:05;;;;;;;6.87;2.30;;;2.80;99.90;;;3.79;100.00;-19855.91;5033279;28;20576;-57
2022/04/10 03:33:33;;;;;;;4.93;2.53;;;2.90;99.90;;;3.87;100.00;-19858.47;5033790;28;20210;-58
2022/04/10 03:36:02;;;;;;;7.10;2.60;;;2.90;99.90;;;3.74;100.00;-19854.34;5032926;28;20603;-56
2022/04/10 03:38:29;;;;;;;4.77;2.50;;;3.00;99.90;;;3.80;100.00;-19856.25;5032905;28;20232;-57
2022/04/10 03:40:59;;;;;;;5.07;2.30;;;2.90;99.90;;;3.84;100.00;-19857.59;5032375;28;20220;-57
2022/04/10 03:43:27;;;;;;;5.37;2.60;;;3.00;99.90;;;3.74;100.00;-19854.19;5033001;28;20305;-55
2022/04/10 03:45:55;;;;;;;3.53;2.37;;;3.00;99.90;;;3.84;100.00;-19857.59;5032987;28;20212;-57
2022/04/10 03:48:23;;;;;;;3.83;2.40;;;3.00;99.90;;;3.88;100.00;-19858.97;5033455;28;20291;-57
2022/04/10 03:50:51;;;;;;;4.77;2.37;;;3.10;99.90;;;3.97;100.00;-19862.06;5032758;28;20222;-57
2022/04/10 03:53:19;;;;;;;5.83;2.13;;;3.10;99.90;;;3.96;100.00;-19861.72;5032038;28;20228;-54
2022/04/10 03:55:48;;;;;;;4.33;2.10;;;3.10;99.90;;;3.95;100.00;-19861.38;5032583;28;20226;-56
2022/04/10 03:58:17;;;;;;;5.63;3.07;;;3.10;99.90;;;3.95;100.00;-19861.38;5032770;28;20236;-57
2022/04/10 04:00:46;;;;;;;4.57;2.87;;;3.20;99.90;;;4.08;100.00;-19865.81;5033142;28;20222;-58
2022/04/10 04:03:14;;;;;;;3.13;2.10;;;3.20;99.90;;;4.04;100.00;-19864.44;5032353;28;20263;-56
2022/04/10 04:05:42;;;;;;;5.33;2.97;;;3.20;99.90;;;3.87;100.00;-19858.63;5032471;28;20226;-57
2022/04/10 04:08:10;;;;;;;5.87;2.50;;;3.10;99.90;;;3.82;100.00;-19856.94;5032689;28;20318;-58
2022/04/10 04:10:38;;;;;;;6.70;2.47;;;3.10;99.90;;;3.63;100.00;-19850.59;5032116;28;20320;-57
2022/04/10 04:13:06;;;;;;;5.13;2.50;;;3.00;99.90;;;3.57;100.00;-19848.53;5032491;28;20315;-57
2022/04/10 04:15:35;;;;;;;3.07;2.30;;;3.00;99.90;;;3.41;100.00;-19842.91;5033152;28;20210;-57
2022/04/10 04:18:04;;;;;;;3.17;2.37;;;2.90;99.90;;;3.71;100.00;-19853.16;5032340;28;20233;-56
2022/04/10 04:20:32;;;;;;;6.47;2.40;;;2.90;99.90;;;3.56;100.00;-19848.03;5032255;28;20233;-61
2022/04/10 04:23:00;;;;;;;5.10;2.70;;;2.80;99.90;;;3.36;100.00;-19841.19;5032153;28;20221;-55
2022/04/10 04:25:28;;;;;;;4.73;2.10;;;2.80;99.90;;;3.60;100.00;-19849.56;5031904;28;20712;-56
2022/04/10 04:27:56;;;;;;;4.40;2.50;;;2.70;99.90;;;3.44;100.00;-19843.94;5032454;28;20288;-58
2022/04/10 04:30:24;;;;;;;6.27;2.90;;;2.70;99.90;;;3.68;100.00;-19852.13;5032730;28;20198;-58
2022/04/10 04:32:53;;;;;;;4.20;2.50;;;2.80;99.90;;;3.69;100.00;-19852.66;5032828;28;20230;-55
2022/04/10 04:35:21;;;;;;;4.10;2.30;;;2.80;99.90;;;3.58;100.00;-19848.91;5032041;28;20264;-57
2022/04/10 04:37:49;;;;;;;3.30;2.47;;;2.80;99.90;;;3.60;100.00;-19849.41;5031896;28;20231;-55
2022/04/10 04:40:17;;;;;;;4.33;2.47;;;2.80;99.90;;;3.50;100.00;-19846.00;5031803;28;20570;-56
2022/04/10 04:42:45;;;;;;;5.47;2.50;;;2.80;99.90;;;3.48;100.00;-19845.31;5032620;28;20301;-56
2022/04/10 04:45:13;;;;;;;3.43;2.47;;;2.70;99.90;;;3.64;100.00;-19850.78;5031585;28;20264;-58
2022/04/10 04:47:41;;;;;;;4.87;2.80;;;2.70;99.90;;;3.77;100.00;-19855.22;5031974;28;20652;-56
2022/04/10 04:50:11;;;;;;;3.07;2.33;;;2.80;99.90;;;3.75;100.00;-19854.53;5031624;28;20652;-57
2022/04/10 04:52:40;;;;;;;4.17;2.50;;;2.80;99.90;;;3.64;100.00;-19850.94;5031490;28;20733;-57
2022/04/10 04:55:09;;;;;;;5.90;2.63;;;2.90;99.90;;;3.40;100.00;-19842.56;5031362;28;20300;-55
2022/04/10 04:57:37;;;;;;;4.10;2.90;;;2.80;99.90;;;3.56;100.00;-19848.22;5032255;28;20232;-56
2022/04/10 05:00:07;;;;;;;4.87;3.03;;;2.80;99.90;;;3.76;100.00;-19854.88;5031313;28;20232;-55
2022/04/10 05:02:35;;;;;;;4.93;2.53;;;2.90;99.90;;;3.97;100.00;-19861.88;5031165;28;20323;-57
2022/04/10 05:05:04;;;;;;;6.93;2.30;;;3.00;99.90;;;3.91;100.00;-19860.00;5030902;28;20229;-56
2022/04/10 05:07:33;;;;;;;4.13;2.70;;;3.00;99.90;;;3.85;100.00;-19857.78;5031752;28;20326;-57
2022/04/10 05:10:01;;;;;;;5.07;2.57;;;3.00;99.90;;;4.03;100.00;-19864.09;5031147;28;20706;-55
2022/04/10 05:12:32;;;;;;;5.00;2.63;;;3.10;99.90;;;3.94;100.00;-19860.84;5031620;28;20299;-57
2022/04/10 05:15:00;;;;;;;6.03;2.67;;;3.20;99.90;;;4.09;100.00;-19866.16;5031129;28;20361;-55
2022/04/10 05:17:28;;;;;;;6.00;2.57;;;3.20;99.90;;;4.33;100.00;-19874.34;5031222;28;20233;-58
2022/04/10 05:19:56;;;;;;;3.63;2.23;;;3.30;99.90;;;4.13;100.00;-19867.53;5031133;28;20695;-56
2022/04/10 05:22:24;;;;;;;6.90;3.10;;;3.40;99.90;;;4.20;100.00;-19869.75;5031185;28;20316;-58
2022/04/10 05:25:00;;;;;;;5.10;2.50;;;3.40;99.90;;;4.48;100.00;-19879.47;5030946;28;20187;-54
2022/04/10 05:27:28;;;;;;;4.60;2.60;;;3.50;99.90;;;4.67;100.00;-19885.97;5031339;28;20202;-54
2022/04/10 05:29:56;;;;;;;6.17;2.60;;;3.70;99.90;;;4.73;100.00;-19888.03;5030841;28;20746;-54
2022/04/10 05:32:24;;;;;;;6.80;2.60;;;3.80;99.90;;;4.77;100.00;-19889.22;5030840;28;20616;-57
2022/04/10 05:34:52;;;;;;;6.50;2.77;;;3.90;99.90;;;4.98;100.00;-19896.59;5030696;28;20910;-57
2022/04/10 05:37:20;;;;;;;6.70;2.73;;;4.00;99.90;;;5.10;100.00;-19900.50;5030769;28;20222;-58
2022/04/10 05:39:48;;;;;;;4.80;2.63;;;4.20;99.90;;;5.14;100.00;-19901.72;5031374;28;20237;-57
2022/04/10 05:42:17;;;;;;;3.77;2.30;;;4.30;99.90;;;5.11;100.00;-19900.69;5030332;28;20224;-59
2022/04/10 05:44:45;;;;;;;5.50;2.90;;;4.40;99.90;;;5.52;100.00;-19914.69;5030720;28;20597;-56
2022/04/10 05:47:13;;;;;;;7.07;3.27;;;4.60;99.90;;;5.80;100.00;-19924.44;5030396;28;20571;-58
2022/04/10 05:49:41;;;;;;;5.60;2.70;;;4.70;99.90;;;5.88;100.00;-19927.19;5030695;28;20568;-57
2022/04/10 05:52:09;;;;;;;8.60;3.90;;;4.80;99.90;;;6.11;100.00;-19934.88;5030520;28;20199;-56
2022/04/10 05:54:37;;;;;;;7.50;3.60;;;4.90;99.90;;;6.42;99.50;-19945.47;5030886;28;20239;-59
2022/04/10 05:57:06;;;;;;;6.67;2.93;;;4.90;99.90;;;6.41;99.50;-19945.13;5030054;28;20231;-56
2022/04/10 05:59:35;;;;;;;5.10;2.70;;;5.00;99.90;;;6.36;98.81;-19943.25;5030740;28;20308;-57
2022/04/10 06:02:03;;;;;;;5.60;2.73;;;5.10;99.90;;;6.21;99.04;-19938.28;5030341;28;20302;-58
2022/04/10 06:04:31;;;;;;;3.87;2.63;;;5.10;99.90;;;6.28;97.21;-19940.69;5030375;28;20228;-57
2022/04/10 06:06:59;;;;;;;7.13;2.80;;;5.10;99.90;;;6.12;97.65;-19935.22;5030512;28;20291;-55
2022/04/10 06:09:27;;;;;;;5.73;2.90;;;5.00;99.90;;;6.32;96.51;-19942.03;5031147;28;20250;-57
2022/04/10 06:11:55;;;;;;;5.07;2.80;;;5.10;99.90;;;6.30;96.80;-19941.38;5030021;28;20319;-59
2022/04/10 06:14:23;;;;;;;5.07;2.73;;;5.10;99.90;;;6.21;98.33;-19938.28;5030305;28;20281;-57
2022/04/10 06:16:53;;;;;;;6.60;2.77;;;5.10;99.90;;;6.39;95.85;-19944.44;5029675;28;20813;-55
2022/04/10 06:19:21;;;;;;;6.37;2.50;;;5.20;99.90;;;6.47;95.44;-19947.00;5030314;28;20227;-58
2022/04/10 06:21:48;;;;;;;4.53;2.57;;;5.30;99.90;;;6.50;95.42;-19948.19;5030303;28;20227;-56
2022/04/10 06:24:16;;;;;;;5.23;2.77;;;5.40;99.90;;;6.50;95.27;-19948.03;5030535;28;20251;-58
2022/04/10 06:26:48;;;;;;;5.17;2.57;;;5.40;99.90;;;6.59;95.49;-19951.28;5029886;28;20724;-57
2022/04/10 06:29:17;;;;;;;5.93;2.87;;;5.50;99.90;;;6.78;94.90;-19957.75;5030066;28;20662;-55
2022/04/10 06:31:45;;;;;;;6.07;2.90;;;5.60;99.90;;;6.97;91.25;-19964.25;5030010;28;20713;-56
2022/04/10 06:34:15;;;;;;;5.30;2.50;;;5.80;99.90;;;7.05;91.38;-19966.81;5029945;28;20787;-54
2022/04/10 06:36:43;;;;;;;6.03;2.90;;;5.90;99.90;;;7.03;90.53;-19966.31;5030733;28;20237;-56
2022/04/10 06:39:14;;;;;;;5.00;2.70;;;5.90;99.90;;;7.31;89.60;-19975.88;5029904;28;20229;-57
2022/04/10 06:41:41;;;;;;;4.80;2.80;;;6.00;99.90;;;7.38;87.76;-19978.09;5029552;28;20323;-56
2022/04/10 06:44:10;;;;;;;3.63;2.50;;;6.10;99.90;;;7.27;85.96;-19974.34;5029647;28;20256;-55
2022/04/10 06:46:38;;;;;;;4.67;2.77;;;6.10;99.90;;;7.29;86.29;-19975.19;5030210;28;20247;-58
2022/04/10 06:49:06;;;;;;;7.40;3.00;;;6.10;99.90;;;7.21;87.40;-19972.28;5029979;28;20642;-59
2022/04/10 06:51:35;;;;;;;8.27;2.47;;;6.10;99.90;;;7.20;88.49;-19972.13;5030354;28;20190;-56
2022/04/10 06:54:04;;;;;;;6.17;2.80;;;6.10;99.90;;;7.29;86.61;-19975.19;5029674;28;20339;-58
2022/04/10 06:56:32;;;;;;;5.60;2.83;;;6.10;99.90;;;7.46;84.91;-19980.66;5029837;28;20324;-59
2022/04/10 06:59:00;;;;;;;6.13;2.87;;;6.20;99.90;;;7.73;84.22;-19989.91;5029769;28;20218;-56
2022/04/10 07:01:28;;;;;;;5.17;2.70;;;6.30;99.90;;;7.82;84.05;-19993.13;5029989;28;20231;-59
2022/04/10 07:04:01;;;;;;;6.37;2.20;;;6.40;99.90;;;8.08;80.90;-20001.84;5030033;28;20202;-59
2022/04/10 07:06:28;;;;;;;5.50;2.60;;;6.60;99.90;;;8.09;81.38;-20002.19;5030158;28;20237;-54
2022/04/10 07:08:58;;;;;;;5.17;2.60;;;6.60;99.90;;;8.05;80.78;-20000.84;5029644;28;20232;-56
2022/04/10 07:11:26;;;;;;;6.50;2.43;;;6.70;99.90;;;8.06;80.80;-20001.16;5029608;28;20225;-56
2022/04/10 07:13:54;;;;;;;5.40;2.40;;;6.70;99.90;;;7.98;83.53;-19998.59;5029578;28;20233;-56
2022/04/10 07:16:22;;;;;;;6.50;2.27;;;6.70;99.90;;;8.15;81.22;-20004.41;5029997;28;20221;-56
2022/04/10 07:18:50;;;;;;;4.20;2.13;;;6.70;99.90;;;8.50;78.63;-20016.22;5030116;28;20202;-57
2022/04/10 07:23:41;;;;;;;5.67;2.13;;;6.90;99.90;;;8.47;80.15;-20015.34;5030179;28;20312;-56
2022/04/10 07:24:09;;;;;;;5.00;2.07;;;7.00;99.90;;;8.72;76.29;-20023.56;5029530;28;20316;-56
2022/04/10 07:26:37;;;;;;;5.33;2.40;;;7.20;99.90;;;8.33;75.62;-20010.56;5029154;28;20232;-55
2022/04/10 07:29:05;;;;;;;4.90;2.40;;;7.10;99.90;;;8.44;74.92;-20014.34;5031462;28;20353;-56
2022/04/10 07:31:32;;;;;;;5.00;2.20;;;7.10;99.90;;;8.37;75.16;-20011.94;5033115;28;20586;-56
2022/04/10 07:34:00;;;;;;;4.17;2.50;;;7.10;99.90;;;8.69;74.88;-20022.53;5033097;28;20210;-58
2022/04/10 07:36:28;;;;;;;6.50;1.83;;;7.30;99.90;;;8.62;72.62;-20020.31;5033824;28;20205;-56
2022/04/10 07:38:57;;;;;;;4.73;1.87;;;7.30;99.90;;;8.57;70.83;-20018.78;5033253;28;20587;-56
2022/04/10 07:41:26;;;;;;;5.57;2.17;;;7.30;99.90;;;8.25;71.86;-20007.84;5032680;28;20244;-56
2022/04/10 07:43:54;;;;;;;5.20;2.07;;;7.10;99.90;;;7.93;71.41;-19996.72;5032708;28;20305;-58
2022/04/10 07:49:08;;;;;;;7.63;2.13;;;6.80;99.90;;;7.80;69.83;-19992.28;5017615;28;20187;-58
2022/04/10 07:51:35;;;;;;;7.73;2.23;;;6.70;99.90;;;7.80;70.95;-19992.47;5033322;28;20197;-55
2022/04/10 07:54:04;;;;;;;5.73;2.23;;;6.60;99.90;;;7.44;72.20;-19980.31;5032634;28;20249;-56
2022/04/10 07:56:33;;;;;;;4.57;2.30;;;6.50;99.90;;;7.51;73.80;-19982.38;5032513;28;20240;-56
2022/04/10 07:59:01;;;;;;;6.70;2.57;;;6.40;99.90;;;7.29;75.29;-19975.19;5032542;28;20225;-56
2022/04/10 08:01:29;;;;;;;5.13;2.50;;;6.30;99.90;;;7.20;75.47;-19971.94;5033925;28;20637;-55
2022/04/10 08:03:57;;;;;;;7.57;2.17;;;6.20;99.90;;;6.91;75.93;-19962.22;5034055;28;20213;-57
2022/04/10 08:06:25;;;;;;;5.63;2.27;;;6.10;99.90;;;7.12;75.30;-19969.22;5034515;28;20225;-55
2022/04/10 08:08:53;;;;;;;6.63;2.50;;;6.00;99.90;;;7.03;76.54;-19966.16;5033773;28;20742;-55
2022/04/10 08:11:21;;;;;;;6.47;2.60;;;6.00;99.90;;;7.02;76.66;-19965.78;5033773;28;20610;-56
2022/04/10 08:13:50;;;;;;;5.03;2.40;;;6.00;99.90;;;7.00;77.15;-19965.13;5033432;28;20238;-58
2022/04/10 08:16:18;;;;;;;6.60;2.30;;;6.00;99.90;;;6.97;75.81;-19964.09;5033595;28;20579;-57
2022/04/10 08:18:46;;;;;;;8.70;2.30;;;6.00;99.90;;;6.99;77.38;-19964.78;5034181;28;20302;-58
2022/04/10 08:21:14;;;;;;;7.10;2.70;;;6.00;99.90;;;7.00;77.72;-19965.13;5032887;28;20225;-54
2022/04/10 08:23:42;;;;;;;8.27;2.40;;;6.10;99.90;;;7.46;78.29;-19980.84;5013376;28;20596;-57
2022/04/10 08:26:10;;;;;;;6.93;2.73;;;6.20;99.90;;;7.69;77.31;-19988.53;5013302;28;20231;-55
2022/04/10 08:28:38;;;;;;;7.83;2.37;;;6.30;99.90;;;7.47;76.16;-19981.34;5013424;28;20214;-56
2022/04/10 08:31:08;;;;;;;5.53;2.60;;;6.30;99.90;;;7.28;78.04;-19974.84;5013418;28;20226;-55
2022/04/10 08:33:36;;;;;;;6.17;2.63;;;6.30;99.90;;;7.12;78.09;-19969.22;5020934;28;20230;-56
2022/04/10 08:36:04;;;;;;;6.27;2.53;;;6.20;99.90;;;7.08;81.31;-19968.03;5032768;28;20225;-56
2022/04/10 08:38:32;;;;;;;5.90;2.43;;;6.10;99.90;;;7.11;80.39;-19968.88;5032662;28;20689;-57
2022/04/10 08:41:02;;;;;;;6.57;2.87;;;6.10;99.90;;;7.72;80.36;-19989.56;5030692;28;20301;-57
2022/04/10 08:43:30;;;;;;;9.57;3.03;;;6.30;99.90;;;8.08;75.72;-20002.03;5015531;28;20239;-55
2022/04/10 08:45:59;;;;;;;5.73;2.40;;;6.60;99.90;;;8.23;74.76;-20006.97;5012942;28;20211;-57
2022/04/10 08:48:29;;;;;;;7.93;2.80;;;6.70;99.90;;;8.68;72.03;-20022.19;5013544;28;20294;-57
2022/04/10 08:50:59;;;;;;;6.03;2.40;;;7.10;99.90;;;8.50;70.40;-20016.38;5028105;28;20225;-56
2022/04/10 08:53:29;;;;;;;7.93;3.33;;;7.10;99.90;;;8.22;72.11;-20006.63;5012577;28;20313;-56
2022/04/10 08:55:57;;;;;;;6.77;2.27;;;7.10;99.90;;;8.13;71.32;-20003.72;5012422;28;20281;-56
2022/04/10 08:58:25;;;;;;;5.50;2.50;;;7.10;99.90;;;8.08;71.68;-20002.03;5014625;28;20226;-56
2022/04/10 09:00:56;;;;;;;5.43;2.50;;;7.00;99.90;;;8.18;71.77;-20005.44;5032492;28;20628;-57
2022/04/10 09:03:25;;;;;;;4.63;2.43;;;7.00;99.90;;;8.48;71.63;-20015.69;5032967;28;20598;-57
2022/04/10 09:06:06;;;;;;;5.83;2.40;;;7.10;99.90;;;8.72;71.58;-20023.56;5032247;28;20256;-57
2022/04/10 09:08:34;;;;;;;5.67;2.80;;;7.20;99.90;;;9.25;69.32;-20041.66;5032324;28;20225;-56
2022/04/10 09:11:04;;;;;;;6.00;2.43;;;7.60;99.90;;;9.62;67.27;-20054.31;5031947;28;20259;-59
2022/04/10 09:13:35;;;;;;;4.80;2.53;;;7.80;99.90;;;9.66;63.33;-20055.66;5031956;28;20232;-56
2022/04/10 09:16:10;;;;;;;4.10;2.10;;;8.00;99.90;;;9.41;64.50;-20047.13;5032135;28;20274;-56
2022/04/10 09:18:54;;;;;;;6.23;2.37;;;8.00;99.90;;;8.99;65.37;-20032.78;5032474;28;20210;-60
2022/04/10 09:21:28;;;;;;;6.10;2.80;;;7.70;99.90;;;8.62;68.26;-20020.47;5032050;28;20202;-58
2022/04/10 09:24:03;;;;;;;8.63;2.93;;;7.60;99.90;;;8.30;70.60;-20009.38;5031979;28;20276;-55
2022/04/10 09:26:47;;;;;;;4.53;2.70;;;7.30;99.90;;;8.14;74.35;-20004.06;5031768;28;20229;-58
2022/04/10 09:29:16;;;;;;;7.07;3.23;;;7.20;99.90;;;8.26;73.76;-20008.00;5031900;28;20265;-60
2022/04/10 09:31:45;;;;;;;4.40;2.80;;;7.10;99.90;;;8.78;71.88;-20025.78;5031684;28;20766;-57
2022/04/10 09:34:17;;;;;;;5.33;2.50;;;7.30;99.90;;;9.26;69.43;-20042.00;5031700;28;20737;-60
2022/04/10 09:37:06;;;;;;;6.20;2.97;;;7.50;99.90;;;9.68;66.55;-20056.53;5031918;28;20276;-57
2022/04/10 09:39:36;;;;;;;4.30;2.57;;;8.00;99.90;;;9.90;65.01;-20063.88;5032307;28;20191;-58
2022/04/10 09:42:07;;;;;;;5.77;2.70;;;8.30;99.90;;;10.10;63.39;-20070.72;5031256;28;20948;-60
2022/04/10 09:44:36;;;;;;;4.97;2.50;;;8.50;99.90;;;10.07;62.36;-20069.69;5030357;28;20218;-59
2022/04/10 09:47:07;;;;;;;7.77;2.83;;;8.60;99.90;;;10.00;62.58;-20067.13;5018191;28;20573;-59
2022/04/10 09:49:37;;;;;;;6.67;2.80;;;8.60;99.90;;;10.12;62.75;-20071.22;5016270;28;20287;-58
2022/04/10 09:52:10;;;;;;;5.63;2.87;;;8.60;99.90;;;10.07;60.64;-20069.50;5022615;28;20215;-58
2022/04/10 09:54:41;;;;;;;5.83;2.20;;;8.70;99.90;;;9.98;61.85;-20066.44;5010457;28;20209;-58
2022/04/10 09:57:13;;;;;;;7.40;2.80;;;8.60;99.90;;;9.94;61.92;-20065.06;5012064;28;20226;-59
2022/04/10 09:59:45;;;;;;;5.23;2.53;;;8.60;99.90;;;10.06;61.84;-20069.16;5030796;28;20338;-58
2022/04/10 10:02:15;;;;;;;4.27;1.97;;;8.60;99.90;;;10.30;59.23;-20077.53;5030786;28;20685;-59
2022/04/10 10:04:46;;;;;;;4.07;2.23;;;8.70;99.90;;;9.84;60.44;-20061.81;5031050;28;20241;-60
2022/04/10 10:07:18;;;;;;;6.27;2.00;;;8.50;99.90;;;9.52;62.60;-20051.06;5031001;28;20249;-59
2022/04/10 10:09:48;;;;;;;6.43;2.80;;;8.30;99.90;;;9.28;64.93;-20042.88;5031206;28;20258;-58
2022/04/10 10:12:17;;;;;;;5.27;2.03;;;8.20;99.90;;;9.27;65.33;-20042.34;5028849;28;20226;-56
2022/04/10 10:14:45;;;;;;;4.17;2.23;;;8.00;99.90;;;8.92;66.10;-20030.38;5031077;28;20300;-57
2022/04/10 10:17:13;;;;;;;6.27;2.23;;;7.90;99.90;;;8.70;68.08;-20022.88;5031208;28;20234;-59
2022/04/10 10:19:42;;;;;;;4.50;2.17;;;7.70;99.90;;;9.03;66.12;-20034.31;5031278;28;20230;-61
2022/04/10 10:22:13;;;;;;;4.00;2.20;;;7.80;99.90;;;9.72;66.67;-20057.88;5031269;28;20201;-59
2022/04/10 10:24:53;;;;;;;4.97;2.20;;;8.10;99.90;;;10.24;64.03;-20075.31;5031724;28;20229;-60
2022/04/10 10:27:54;;;;;;;3.33;2.03;;;8.50;99.90;;;10.21;64.20;-20074.31;5031188;28;20210;-60
2022/04/10 10:30:33;;;;;;;4.67;1.90;;;8.60;99.90;;;10.28;61.95;-20076.69;5031211;28;20228;-60
2022/04/10 10:33:16;;;;;;;4.33;2.03;;;8.70;99.90;;;10.30;59.34;-20077.53;5030868;28;20230;-60